createdAt,value
2022-11-24T00:00:22.504Z,91.72
2022-11-24T00:01:22.231Z,91.62
2022-11-24T00:02:22.427Z,91.31
2022-11-24T00:03:22.368Z,91.20
2022-11-24T00:04:22.196Z,91.72
2022-11-24T00:05:22.181Z,91.52
2022-11-24T00:06:22.195Z,91.68
2022-11-24T00:07:22.220Z,91.68
2022-11-24T00:08:22.183Z,91.16
2022-11-24T00:09:22.156Z,91.27
2022-11-24T00:10:22.211Z,91.20
2022-11-24T00:11:22.137Z,91.20
2022-11-24T00:12:22.134Z,91.10
2022-11-24T00:13:22.113Z,91.72
2022-11-24T00:14:22.080Z,91.93
2022-11-24T00:15:22.070Z,91.52
2022-11-24T00:16:22.115Z,91.52
2022-11-24T00:17:22.073Z,91.93
2022-11-24T00:18:22.038Z,91.72
2022-11-24T00:19:22.035Z,92.03
2022-11-24T00:20:22.016Z,92.28
2022-11-24T00:21:22.012Z,91.52
2022-11-24T00:22:21.994Z,92.07
2022-11-24T00:23:22.024Z,91.76
2022-11-24T00:24:21.981Z,91.76
2022-11-24T00:25:21.964Z,91.97
2022-11-24T00:26:21.953Z,91.97
2022-11-24T00:27:21.938Z,91.66
2022-11-24T00:28:21.951Z,91.76
2022-11-24T00:29:21.923Z,92.07
2022-11-24T00:30:21.919Z,92.90
2022-11-24T00:31:22.027Z,92.80
2022-11-24T00:32:21.885Z,92.63
2022-11-24T00:33:21.900Z,92.43
2022-11-24T00:34:21.875Z,92.94
2022-11-24T00:35:21.878Z,92.63
2022-11-24T00:36:21.851Z,93.26
2022-11-24T00:37:21.846Z,93.82
2022-11-24T00:38:21.833Z,94.03
2022-11-24T00:39:21.876Z,93.82
2022-11-24T00:40:21.803Z,93.72
2022-11-24T00:41:21.797Z,94.24
2022-11-24T00:42:21.789Z,93.93
2022-11-24T00:43:21.772Z,94.61
2022-11-24T00:44:21.754Z,94.40
2022-11-24T00:45:21.776Z,94.51
2022-11-24T00:46:21.968Z,94.71
2022-11-24T00:47:21.894Z,94.92
2022-11-24T00:48:21.722Z,94.40
2022-11-24T00:49:21.704Z,94.61
2022-11-24T00:50:21.692Z,94.61
2022-11-24T00:51:30.475Z,94.40
2022-11-24T00:52:21.690Z,94.46
2022-11-24T00:53:21.678Z,94.46
2022-11-24T00:54:21.659Z,94.05
2022-11-24T00:55:21.659Z,93.43
2022-11-24T00:56:21.643Z,93.53
2022-11-24T00:57:21.647Z,93.53
2022-11-24T00:58:21.604Z,93.01
2022-11-24T00:59:21.607Z,93.26
2022-11-24T01:00:21.595Z,93.78
2022-11-24T01:01:21.671Z,93.88
2022-11-24T01:02:21.623Z,93.57
2022-11-24T01:03:21.574Z,93.53
2022-11-24T01:04:21.547Z,94.15
2022-11-24T01:05:21.544Z,93.74
2022-11-24T01:06:21.530Z,92.84
2022-11-24T01:07:21.583Z,93.37
2022-11-24T01:08:21.528Z,93.26
2022-11-24T01:09:21.501Z,93.95
2022-11-24T01:10:21.486Z,93.68
2022-11-24T01:11:21.524Z,93.63
2022-11-24T01:12:21.461Z,93.53
2022-11-24T01:13:21.458Z,93.84
2022-11-24T01:14:21.494Z,93.63
2022-11-24T01:15:21.437Z,92.59
2022-11-24T01:16:21.484Z,92.84
2022-11-24T01:17:21.421Z,93.22
2022-11-24T01:18:21.413Z,93.84
2022-11-24T01:19:21.393Z,93.95
2022-11-24T01:20:21.407Z,93.22
2022-11-24T01:21:21.378Z,93.53
2022-11-24T01:22:21.357Z,93.84
2022-11-24T01:23:21.361Z,93.74
2022-11-24T01:24:21.352Z,93.32
2022-11-24T01:25:21.349Z,92.90
2022-11-24T01:26:21.327Z,92.38
2022-11-24T01:27:21.329Z,92.80
2022-11-24T01:28:21.313Z,92.38
2022-11-24T01:29:21.274Z,92.80
2022-11-24T01:30:21.295Z,92.59
2022-11-24T01:31:21.339Z,92.69
2022-11-24T01:32:21.255Z,92.59
2022-11-24T01:33:21.251Z,92.69
2022-11-24T01:34:21.245Z,92.69
2022-11-24T01:35:21.215Z,92.59
2022-11-24T01:36:21.213Z,93.12
2022-11-24T01:37:21.227Z,92.80
2022-11-24T01:38:21.188Z,93.01
2022-11-24T01:39:21.184Z,92.59
2022-11-24T01:40:21.166Z,92.35
2022-11-24T01:41:21.165Z,92.80
2022-11-24T01:42:21.158Z,92.59
2022-11-24T01:43:21.182Z,92.69
2022-11-24T01:44:21.117Z,93.01
2022-11-24T01:45:21.117Z,92.38
2022-11-24T01:46:21.214Z,92.69
2022-11-24T01:47:21.094Z,92.80
2022-11-24T01:48:25.870Z,92.90
2022-11-24T01:49:22.069Z,93.12
2022-11-24T01:50:21.065Z,93.01
2022-11-24T01:51:21.057Z,92.86
2022-11-24T01:52:21.041Z,93.12
2022-11-24T01:53:21.080Z,92.76
2022-11-24T01:54:21.045Z,92.28
2022-11-24T01:55:21.009Z,91.97
2022-11-24T01:56:20.993Z,92.80
2022-11-24T01:57:21.014Z,92.69
2022-11-24T01:58:20.979Z,92.69
2022-11-24T01:59:20.989Z,92.59
2022-11-24T02:00:20.960Z,93.01
2022-11-24T02:01:21.011Z,93.22
2022-11-24T02:02:20.978Z,92.90
2022-11-24T02:03:20.915Z,92.59
2022-11-24T02:04:20.913Z,92.90
2022-11-24T02:05:20.896Z,93.22
2022-11-24T02:06:20.925Z,93.12
2022-11-24T02:07:20.927Z,93.07
2022-11-24T02:08:20.881Z,93.07
2022-11-24T02:09:20.852Z,92.97
2022-11-24T02:10:20.851Z,92.55
2022-11-24T02:11:20.867Z,92.51
2022-11-24T02:12:20.840Z,92.66
2022-11-24T02:13:20.813Z,92.35
2022-11-24T02:14:20.805Z,92.24
2022-11-24T02:15:20.803Z,92.03
2022-11-24T02:16:20.877Z,91.93
2022-11-24T02:17:20.799Z,92.35
2022-11-24T02:18:20.773Z,92.14
2022-11-24T02:19:20.746Z,92.14
2022-11-24T02:20:20.745Z,92.03
2022-11-24T02:21:20.736Z,92.03
2022-11-24T02:22:20.727Z,91.93
2022-11-24T02:23:20.722Z,92.03
2022-11-24T02:24:20.699Z,92.03
2022-11-24T02:25:20.697Z,92.03
2022-11-24T02:26:20.677Z,91.52
2022-11-24T02:27:20.675Z,91.41
2022-11-24T02:28:20.676Z,91.93
2022-11-24T02:29:20.644Z,91.58
2022-11-24T02:30:20.695Z,91.99
2022-11-24T02:31:20.722Z,91.93
2022-11-24T02:32:20.612Z,91.78
2022-11-24T02:33:20.605Z,91.20
2022-11-24T02:34:20.613Z,91.35
2022-11-24T02:35:20.573Z,92.11
2022-11-24T02:36:20.580Z,92.01
2022-11-24T02:37:20.565Z,92.84
2022-11-24T02:38:20.556Z,92.84
2022-11-24T02:39:20.539Z,93.20
2022-11-24T02:40:20.526Z,93.30
2022-11-24T02:41:20.538Z,93.82
2022-11-24T02:42:20.505Z,93.68
2022-11-24T02:43:20.493Z,94.34
2022-11-24T02:44:20.480Z,94.03
2022-11-24T02:45:20.484Z,94.28
2022-11-24T02:46:20.531Z,94.38
2022-11-24T02:47:20.479Z,94.59
2022-11-24T02:48:20.449Z,95.01
2022-11-24T02:49:20.445Z,94.49
2022-11-24T02:50:20.426Z,94.90
2022-11-24T02:51:20.431Z,95.28
2022-11-24T02:52:20.389Z,94.70
2022-11-24T02:53:20.388Z,95.32
2022-11-24T02:54:20.373Z,95.28
2022-11-24T02:55:20.361Z,95.17
2022-11-24T02:56:20.374Z,95.07
2022-11-24T02:57:20.370Z,95.59
2022-11-24T02:58:20.340Z,95.03
2022-11-24T02:59:20.324Z,95.34
2022-11-24T03:00:20.303Z,95.03
2022-11-24T03:01:20.309Z,95.23
2022-11-24T03:02:20.313Z,95.03
2022-11-24T03:03:20.303Z,95.54
2022-11-24T03:04:20.284Z,94.67
2022-11-24T03:05:20.259Z,95.09
2022-11-24T03:06:20.240Z,94.78
2022-11-24T03:07:20.287Z,94.88
2022-11-24T03:08:20.247Z,94.82
2022-11-24T03:09:20.216Z,94.67
2022-11-24T03:10:20.202Z,94.88
2022-11-24T03:11:20.195Z,94.82
2022-11-24T03:12:20.211Z,94.67
2022-11-24T03:13:20.189Z,94.88
2022-11-24T03:14:20.168Z,94.46
2022-11-24T03:15:20.154Z,94.26
2022-11-24T03:16:20.249Z,93.80
2022-11-24T03:17:20.175Z,93.84
2022-11-24T03:18:20.120Z,93.74
2022-11-24T03:19:20.124Z,93.01
2022-11-24T03:20:20.089Z,93.01
2022-11-24T03:21:20.079Z,93.26
2022-11-24T03:22:20.081Z,93.63
2022-11-24T03:23:20.075Z,93.95
2022-11-24T03:24:20.051Z,93.84
2022-11-24T03:25:20.049Z,93.74
2022-11-24T03:26:20.068Z,93.53
2022-11-24T03:27:20.026Z,93.78
2022-11-24T03:28:20.043Z,94.26
2022-11-24T03:29:19.999Z,93.78
2022-11-24T03:30:19.991Z,94.26
2022-11-24T03:31:20.051Z,93.63
2022-11-24T03:32:19.979Z,93.43
2022-11-24T03:33:19.957Z,93.84
2022-11-24T03:34:19.956Z,93.84
2022-11-24T03:35:19.952Z,93.22
2022-11-24T03:36:19.940Z,93.01
2022-11-24T03:37:19.940Z,93.01
2022-11-24T03:38:19.906Z,92.69
2022-11-24T03:39:19.884Z,92.38
2022-11-24T03:40:19.880Z,92.38
2022-11-24T03:41:19.877Z,93.01
2022-11-24T03:42:19.879Z,92.38
2022-11-24T03:43:19.850Z,92.28
2022-11-24T03:44:19.847Z,92.59
2022-11-24T03:45:44.952Z,92.69
2022-11-24T03:46:20.955Z,92.59
2022-11-24T03:47:19.819Z,92.55
2022-11-24T03:48:19.799Z,92.86
2022-11-24T03:49:19.789Z,92.86
2022-11-24T03:50:19.775Z,92.55
2022-11-24T03:51:19.775Z,92.03
2022-11-24T03:52:19.774Z,91.97
2022-11-24T03:53:19.757Z,92.28
2022-11-24T03:54:19.749Z,92.45
2022-11-24T03:55:19.711Z,92.24
2022-11-24T03:56:19.709Z,92.24
2022-11-24T03:57:19.700Z,92.24
2022-11-24T03:58:19.678Z,91.93
2022-11-24T03:59:19.697Z,92.14
2022-11-24T04:00:19.656Z,91.41
2022-11-24T04:01:19.716Z,92.03
2022-11-24T04:02:19.678Z,91.83
2022-11-24T04:03:19.621Z,91.93
2022-11-24T04:04:19.619Z,92.03
2022-11-24T04:05:19.624Z,91.83
2022-11-24T04:06:19.603Z,91.93
2022-11-24T04:07:19.655Z,91.97
2022-11-24T04:08:19.581Z,91.83
2022-11-24T04:09:19.572Z,91.52
2022-11-24T04:10:19.566Z,91.62
2022-11-24T04:11:19.536Z,91.83
2022-11-24T04:12:19.523Z,92.14
2022-11-24T04:13:19.518Z,92.24
2022-11-24T04:14:19.507Z,91.89
2022-11-24T04:15:19.504Z,91.62
2022-11-24T04:16:19.602Z,91.68
2022-11-24T04:17:19.481Z,91.47
2022-11-24T04:18:19.491Z,91.16
2022-11-24T04:19:19.449Z,91.10
2022-11-24T04:20:19.445Z,91.27
2022-11-24T04:21:19.433Z,90.54
2022-11-24T04:22:19.422Z,91.27
2022-11-24T04:23:19.491Z,91.16
2022-11-24T04:24:19.421Z,90.64
2022-11-24T04:25:19.397Z,90.33
2022-11-24T04:26:19.412Z,90.48
2022-11-24T04:27:19.378Z,90.79
2022-11-24T04:28:19.366Z,90.58
2022-11-24T04:29:19.354Z,90.79
2022-11-24T04:30:19.348Z,90.69
2022-11-24T04:31:19.405Z,91.14
2022-11-24T04:32:19.327Z,90.79
2022-11-24T04:33:19.314Z,91.10
2022-11-24T04:34:19.308Z,91.62
2022-11-24T04:35:19.306Z,91.10
2022-11-24T04:36:19.274Z,91.24
2022-11-24T04:37:19.272Z,91.28
2022-11-24T04:39:23.250Z,91.24
2022-11-24T04:39:26.519Z,91.55
2022-11-24T04:40:20.229Z,91.70
2022-11-24T04:41:19.226Z,92.28
2022-11-24T04:42:19.217Z,91.97
2022-11-24T04:43:19.219Z,92.07
2022-11-24T04:44:19.185Z,91.97
2022-11-24T04:45:19.188Z,91.86
2022-11-24T04:46:19.242Z,91.76
2022-11-24T04:47:19.159Z,92.07
2022-11-24T04:48:19.156Z,91.76
2022-11-24T04:49:19.142Z,91.97
2022-11-24T04:50:19.123Z,92.28
2022-11-24T04:51:19.117Z,91.97
2022-11-24T04:52:19.118Z,91.80
2022-11-24T04:53:19.088Z,92.01
2022-11-24T04:54:19.085Z,92.18
2022-11-24T04:55:19.090Z,92.01
2022-11-24T04:56:19.111Z,91.97
2022-11-24T04:57:19.058Z,93.05
2022-11-24T04:58:19.042Z,92.07
2022-11-24T04:59:19.030Z,92.01
2022-11-24T05:00:19.019Z,92.22
2022-11-24T05:01:19.046Z,92.18
2022-11-24T05:02:19.028Z,92.18
2022-11-24T05:03:18.994Z,92.43
2022-11-24T05:04:19.072Z,92.28
2022-11-24T05:05:18.967Z,93.01
2022-11-24T05:06:18.978Z,92.38
2022-11-24T05:07:19.550Z,92.03
2022-11-24T05:08:18.924Z,92.35
2022-11-24T05:09:18.939Z,91.55
2022-11-24T05:10:18.910Z,91.52
2022-11-24T05:11:18.911Z,91.35
2022-11-24T05:12:18.906Z,91.66
2022-11-24T05:13:18.880Z,90.62
2022-11-24T05:14:18.872Z,91.55
2022-11-24T05:15:18.859Z,91.55
2022-11-24T05:16:18.902Z,91.35
2022-11-24T05:17:18.833Z,91.24
2022-11-24T05:18:18.850Z,91.66
2022-11-24T05:19:18.828Z,91.55
2022-11-24T05:20:18.803Z,91.24
2022-11-24T05:21:18.793Z,90.72
2022-11-24T05:22:18.781Z,90.72
2022-11-24T05:23:18.979Z,90.72
2022-11-24T05:24:18.765Z,90.72
2022-11-24T05:25:18.746Z,90.52
2022-11-24T05:26:18.738Z,90.52
2022-11-24T05:27:18.731Z,90.00
2022-11-24T05:28:18.711Z,90.31
2022-11-24T05:29:18.970Z,90.41
2022-11-24T05:30:18.706Z,90.31
2022-11-24T05:31:18.740Z,90.20
2022-11-24T05:32:18.667Z,90.52
2022-11-24T05:33:18.665Z,89.89
2022-11-24T05:34:18.644Z,89.69
2022-11-24T05:35:18.650Z,89.89
2022-11-24T05:36:18.631Z,90.20
2022-11-24T05:37:18.619Z,90.00
2022-11-24T05:38:18.602Z,89.37
2022-11-24T05:39:18.619Z,89.37
2022-11-24T05:40:18.605Z,90.00
2022-11-24T05:41:18.577Z,90.10
2022-11-24T05:42:18.590Z,90.20
2022-11-24T05:43:18.572Z,90.31
2022-11-24T05:44:18.539Z,89.58
2022-11-24T05:45:18.552Z,89.00
2022-11-24T05:46:18.625Z,89.58
2022-11-24T05:47:18.511Z,90.14
2022-11-24T05:48:18.497Z,90.20
2022-11-24T05:49:18.494Z,90.10
2022-11-24T05:50:18.493Z,90.45
2022-11-24T05:51:18.488Z,90.14
2022-11-24T05:52:18.457Z,90.20
2022-11-24T05:53:18.447Z,89.94
2022-11-24T05:54:18.448Z,90.00
2022-11-24T05:55:18.439Z,90.14
2022-11-24T05:56:18.432Z,90.35
2022-11-24T05:57:18.414Z,90.10
2022-11-24T05:58:18.413Z,90.00
2022-11-24T05:59:18.400Z,89.42
2022-11-24T06:00:18.368Z,89.69
2022-11-24T06:01:18.359Z,89.37
2022-11-24T06:02:18.517Z,89.17
2022-11-24T06:03:18.417Z,88.96
2022-11-24T06:04:18.328Z,89.06
2022-11-24T06:05:18.316Z,88.96
2022-11-24T06:06:18.346Z,89.79
2022-11-24T06:07:18.401Z,89.73
2022-11-24T06:08:18.287Z,89.37
2022-11-24T06:09:18.278Z,89.58
2022-11-24T06:10:18.286Z,89.52
2022-11-24T06:11:18.261Z,89.69
2022-11-24T06:12:18.238Z,89.17
2022-11-24T06:13:18.261Z,89.48
2022-11-24T06:14:18.242Z,89.58
2022-11-24T06:15:18.225Z,89.48
2022-11-24T06:16:18.270Z,89.89
2022-11-24T06:17:18.227Z,89.58
2022-11-24T06:18:18.175Z,90.10
2022-11-24T06:19:18.160Z,89.27
2022-11-24T06:20:18.162Z,89.79
2022-11-24T06:21:18.139Z,89.00
2022-11-24T06:22:18.141Z,89.11
2022-11-24T06:23:18.112Z,89.00
2022-11-24T06:24:18.108Z,89.77
2022-11-24T06:25:18.124Z,90.08
2022-11-24T06:26:18.099Z,90.08
2022-11-24T06:27:18.093Z,89.98
2022-11-24T06:28:18.144Z,90.33
2022-11-24T06:29:18.078Z,90.19
2022-11-24T06:30:18.055Z,90.81
2022-11-24T06:31:18.165Z,90.60
2022-11-24T06:32:18.041Z,90.81
2022-11-24T06:33:18.039Z,90.81
2022-11-24T06:34:18.043Z,90.91
2022-11-24T06:35:17.991Z,91.33
2022-11-24T06:36:17.984Z,90.70
2022-11-24T06:37:17.973Z,90.70
2022-11-24T06:38:24.119Z,90.50
2022-11-24T06:39:18.945Z,90.66
2022-11-24T06:40:17.963Z,90.45
2022-11-24T06:41:17.948Z,90.66
2022-11-24T06:42:17.943Z,90.77
2022-11-24T06:43:17.902Z,90.77
2022-11-24T06:44:17.907Z,90.77
2022-11-24T06:45:17.902Z,90.10
2022-11-24T06:46:17.979Z,90.31
2022-11-24T06:47:17.919Z,90.41
2022-11-24T06:48:17.858Z,90.62
2022-11-24T06:49:17.849Z,90.31
2022-11-24T06:50:17.852Z,90.10
2022-11-24T06:51:17.845Z,90.10
2022-11-24T06:52:26.491Z,89.69
2022-11-24T06:53:17.785Z,89.58
2022-11-24T06:54:17.783Z,89.31
2022-11-24T06:55:17.774Z,89.52
2022-11-24T06:56:17.773Z,89.73
2022-11-24T06:57:17.764Z,90.35
2022-11-24T06:58:17.732Z,90.14
2022-11-24T06:59:17.725Z,89.58
2022-11-24T07:00:17.710Z,89.79
2022-11-24T07:01:17.830Z,90.31
2022-11-24T07:02:17.688Z,90.20
2022-11-24T07:03:17.779Z,90.10
2022-11-24T07:04:17.675Z,89.89
2022-11-24T07:05:17.660Z,90.10
2022-11-24T07:06:17.645Z,90.31
2022-11-24T07:07:17.715Z,90.00
2022-11-24T07:08:18.193Z,89.37
2022-11-24T07:09:17.612Z,89.89
2022-11-24T07:10:17.602Z,88.96
2022-11-24T07:11:17.602Z,88.96
2022-11-24T07:12:17.595Z,89.06
2022-11-24T07:13:17.577Z,89.13
2022-11-24T07:14:17.560Z,88.54
2022-11-24T07:15:17.548Z,88.79
2022-11-24T07:16:17.630Z,88.59
2022-11-24T07:17:17.573Z,88.79
2022-11-24T07:18:17.536Z,88.79
2022-11-24T07:19:23.144Z,89.04
2022-11-24T07:20:18.495Z,89.67
2022-11-24T07:21:17.489Z,90.29
2022-11-24T07:22:17.471Z,89.98
2022-11-24T07:23:17.494Z,90.35
2022-11-24T07:24:17.460Z,90.19
2022-11-24T07:25:17.447Z,90.56
2022-11-24T07:26:17.431Z,90.45
2022-11-24T07:27:17.419Z,90.45
2022-11-24T07:28:17.426Z,89.94
2022-11-24T07:29:17.415Z,90.04
2022-11-24T07:30:17.418Z,90.25
2022-11-24T07:31:17.426Z,90.00
2022-11-24T07:32:17.421Z,89.94
2022-11-24T07:33:17.393Z,89.48
2022-11-24T07:34:18.083Z,89.62
2022-11-24T07:35:17.405Z,89.58
2022-11-24T07:36:17.384Z,89.48
2022-11-24T07:37:18.050Z,89.27
2022-11-24T07:38:17.311Z,89.79
2022-11-24T07:39:17.321Z,89.69
2022-11-24T07:40:17.290Z,89.48
2022-11-24T07:41:17.274Z,88.85
2022-11-24T07:42:17.255Z,89.58
2022-11-24T07:43:20.282Z,89.23
2022-11-24T07:44:17.567Z,89.65
2022-11-24T07:45:17.230Z,89.03
2022-11-24T07:46:17.362Z,88.92
2022-11-24T07:47:17.211Z,88.61
2022-11-24T07:48:17.228Z,88.82
2022-11-24T07:49:17.191Z,88.71
2022-11-24T07:50:17.174Z,88.46
2022-11-24T07:51:17.211Z,88.57
2022-11-24T07:52:17.199Z,88.09
2022-11-24T07:53:17.135Z,88.20
2022-11-24T07:54:17.136Z,88.30
2022-11-24T07:55:17.117Z,88.26
2022-11-24T07:56:17.121Z,88.26
2022-11-24T07:57:17.494Z,88.36
2022-11-24T07:58:17.083Z,88.26
2022-11-24T07:59:17.079Z,88.26
2022-11-24T08:00:17.070Z,88.26
2022-11-24T08:01:17.190Z,88.15
2022-11-24T08:02:17.057Z,88.36
2022-11-24T08:03:17.129Z,87.74
2022-11-24T08:04:17.025Z,88.26
2022-11-24T08:05:17.014Z,88.26
2022-11-24T08:06:28.665Z,87.74
2022-11-24T08:07:18.093Z,87.74
2022-11-24T08:08:16.994Z,87.95
2022-11-24T08:09:16.978Z,90.19
2022-11-24T08:10:16.971Z,90.56
2022-11-24T08:11:16.943Z,89.52
2022-11-24T08:12:16.956Z,89.52
2022-11-24T08:13:16.939Z,90.31
2022-11-24T08:14:16.965Z,90.20
2022-11-24T08:15:16.966Z,90.52
2022-11-24T08:16:17.045Z,89.96
2022-11-24T08:17:16.875Z,88.71
2022-11-24T08:18:16.880Z,88.03
2022-11-24T08:19:16.887Z,87.30
2022-11-24T08:20:16.853Z,86.37
2022-11-24T08:21:16.834Z,86.79
2022-11-24T08:22:16.823Z,86.17
2022-11-24T08:23:16.859Z,86.47
2022-11-24T08:24:16.873Z,86.27
2022-11-24T08:25:16.807Z,86.27
2022-11-24T08:26:16.782Z,86.00
2022-11-24T08:27:16.777Z,86.41
2022-11-24T08:28:16.766Z,86.27
2022-11-24T08:29:16.760Z,86.27
2022-11-24T08:30:16.745Z,86.31
2022-11-24T08:31:16.750Z,86.21
2022-11-24T08:32:22.003Z,86.21
2022-11-24T08:33:16.719Z,86.00
2022-11-24T08:34:16.699Z,86.52
2022-11-24T08:35:16.735Z,86.83
2022-11-24T08:36:16.702Z,86.72
2022-11-24T08:37:16.671Z,85.96
2022-11-24T08:38:16.655Z,86.31
2022-11-24T08:39:16.674Z,86.58
2022-11-24T08:40:16.640Z,86.27
2022-11-24T08:41:16.648Z,86.47
2022-11-24T08:42:16.627Z,85.96
2022-11-24T08:43:16.601Z,85.96
2022-11-24T08:44:16.586Z,85.86
2022-11-24T08:45:21.009Z,86.58
2022-11-24T08:46:17.670Z,86.17
2022-11-24T08:47:16.583Z,86.27
2022-11-24T08:48:16.565Z,86.07
2022-11-24T08:49:16.541Z,86.47
2022-11-24T08:50:16.531Z,86.58
2022-11-24T08:51:16.538Z,86.27
2022-11-24T08:52:16.515Z,86.07
2022-11-24T08:53:16.532Z,86.07
2022-11-24T08:54:16.489Z,85.96
2022-11-24T08:55:16.500Z,85.55
2022-11-24T08:56:16.462Z,85.44
2022-11-24T08:57:21.600Z,85.55
2022-11-24T08:58:17.463Z,86.17
2022-11-24T08:59:16.590Z,86.17
2022-11-24T09:00:16.424Z,86.07
2022-11-24T09:01:16.543Z,86.58
2022-11-24T09:02:16.399Z,86.47
2022-11-24T09:03:16.391Z,86.17
2022-11-24T09:04:16.482Z,86.68
2022-11-24T09:05:43.603Z,86.54
2022-11-24T09:06:17.362Z,86.54
2022-11-24T09:07:16.376Z,85.82
2022-11-24T09:08:16.332Z,86.13
2022-11-24T09:09:16.358Z,86.07
2022-11-24T09:10:16.318Z,86.13
2022-11-24T09:11:16.323Z,85.50
2022-11-24T09:12:16.361Z,85.30
2022-11-24T09:13:16.301Z,85.55
2022-11-24T09:14:19.626Z,86.02
2022-11-24T09:15:16.286Z,86.47
2022-11-24T09:16:16.290Z,86.23
2022-11-24T09:17:16.238Z,86.23
2022-11-24T09:18:16.241Z,86.09
2022-11-24T09:19:16.462Z,86.02
2022-11-24T09:20:16.295Z,85.30
2022-11-24T09:21:16.310Z,85.36
2022-11-24T09:22:16.250Z,85.40
2022-11-24T09:23:16.988Z,84.99
2022-11-24T09:24:16.169Z,85.16
2022-11-24T09:25:16.152Z,84.74
2022-11-24T09:26:16.153Z,85.26
2022-11-24T09:27:16.160Z,84.95
2022-11-24T09:28:16.156Z,85.36
2022-11-24T09:29:16.109Z,84.84
2022-11-24T09:30:16.103Z,84.74
2022-11-24T09:31:16.666Z,84.95
2022-11-24T09:32:16.151Z,84.84
2022-11-24T09:33:16.127Z,84.60
2022-11-24T09:34:17.080Z,84.74
2022-11-24T09:35:16.145Z,84.91
2022-11-24T09:36:16.052Z,84.60
2022-11-24T09:37:16.078Z,84.91
2022-11-24T09:38:17.001Z,84.45
2022-11-24T09:39:16.063Z,84.56
2022-11-24T09:40:16.131Z,83.63
2022-11-24T09:41:15.990Z,83.94
2022-11-24T09:42:16.035Z,84.15
2022-11-24T09:43:15.979Z,83.22
2022-11-24T09:44:15.978Z,83.63
2022-11-24T09:45:15.948Z,83.32
2022-11-24T09:46:16.005Z,83.22
2022-11-24T09:47:15.968Z,83.53
2022-11-24T09:48:16.002Z,83.01
2022-11-24T09:49:15.941Z,83.32
2022-11-24T09:50:15.893Z,83.53
2022-11-24T09:51:15.903Z,83.32
2022-11-24T09:52:15.864Z,83.22
2022-11-24T09:53:15.888Z,83.32
2022-11-24T09:54:15.951Z,83.32
2022-11-24T09:55:15.856Z,83.53
2022-11-24T09:56:15.954Z,82.80
2022-11-24T09:57:15.873Z,83.22
2022-11-24T09:58:15.900Z,82.76
2022-11-24T09:59:15.867Z,82.56
2022-11-24T10:00:15.825Z,82.76
2022-11-24T10:01:15.795Z,82.45
2022-11-24T10:02:15.774Z,82.04
2022-11-24T10:03:15.789Z,82.21
2022-11-24T10:04:15.841Z,82.31
2022-11-24T10:05:15.784Z,82.21
2022-11-24T10:06:15.732Z,82.38
2022-11-24T10:07:15.781Z,81.76
2022-11-24T10:08:15.723Z,81.45
2022-11-24T10:09:15.710Z,81.45
2022-11-24T10:10:19.790Z,80.90
2022-11-24T10:11:16.674Z,81.41
2022-11-24T10:12:15.711Z,81.62
2022-11-24T10:13:15.661Z,80.44
2022-11-24T10:14:15.646Z,80.65
2022-11-24T10:15:15.649Z,80.14
2022-11-24T10:16:15.704Z,79.93
2022-11-24T10:17:15.607Z,79.83
2022-11-24T10:18:17.203Z,80.04
2022-11-24T10:19:15.582Z,79.83
2022-11-24T10:20:15.559Z,79.83
2022-11-24T10:21:16.094Z,79.62
2022-11-24T10:22:15.547Z,79.72
2022-11-24T10:23:15.600Z,79.93
2022-11-24T10:24:15.535Z,79.83
2022-11-24T10:25:15.525Z,79.52
2022-11-24T10:26:15.517Z,79.83
2022-11-24T10:27:15.548Z,79.14
2022-11-24T10:28:15.488Z,79.55
2022-11-24T10:29:15.497Z,80.58
2022-11-24T10:30:15.508Z,80.79
2022-11-24T10:31:15.662Z,81.21
2022-11-24T10:32:15.497Z,81.41
2022-11-24T10:33:15.478Z,81.41
2022-11-24T10:34:15.433Z,81.00
2022-11-24T10:35:15.455Z,81.00
2022-11-24T10:36:15.403Z,80.96
2022-11-24T10:37:15.421Z,80.55
2022-11-24T10:38:15.405Z,80.55
2022-11-24T10:39:15.376Z,80.65
2022-11-24T10:40:33.451Z,80.65
2022-11-24T10:41:16.353Z,80.72
2022-11-24T10:42:15.362Z,79.83
2022-11-24T10:43:15.428Z,79.31
2022-11-24T10:44:15.326Z,80.10
2022-11-24T10:45:15.316Z,80.10
2022-11-24T10:46:15.364Z,80.24
2022-11-24T10:47:15.328Z,79.83
2022-11-24T10:48:15.288Z,80.00
2022-11-24T10:49:15.288Z,79.90
2022-11-24T10:50:15.301Z,79.24
2022-11-24T10:51:15.256Z,79.55
2022-11-24T10:52:15.236Z,79.24
2022-11-24T10:53:15.223Z,79.44
2022-11-24T10:54:15.315Z,79.61
2022-11-24T10:55:15.222Z,78.89
2022-11-24T10:56:15.311Z,78.89
2022-11-24T10:57:15.180Z,78.44
2022-11-24T10:58:15.182Z,78.34
2022-11-24T10:59:15.170Z,78.14
2022-11-24T11:00:15.187Z,77.83
2022-11-24T11:01:15.299Z,77.58
2022-11-24T11:02:15.150Z,77.69
2022-11-24T11:03:15.130Z,77.69
2022-11-24T11:04:15.180Z,77.79
2022-11-24T11:05:15.108Z,77.58
2022-11-24T11:06:15.088Z,77.79
2022-11-24T11:07:15.177Z,77.79
2022-11-24T11:08:15.067Z,77.79
2022-11-24T11:09:15.046Z,76.97
2022-11-24T11:10:15.062Z,76.97
2022-11-24T11:11:15.067Z,76.86
2022-11-24T11:12:43.536Z,76.86
2022-11-24T11:13:16.015Z,77.28
2022-11-24T11:14:14.999Z,77.79
2022-11-24T11:15:14.993Z,78.00
2022-11-24T11:16:14.997Z,77.69
2022-11-24T11:17:14.996Z,77.28
2022-11-24T11:18:14.949Z,77.17
2022-11-24T11:19:41.154Z,77.79
2022-11-24T11:20:15.922Z,77.62
2022-11-24T11:21:14.907Z,78.44
2022-11-24T11:22:14.902Z,78.14
2022-11-24T11:23:14.900Z,78.03
2022-11-24T11:24:14.880Z,78.41
2022-11-24T11:25:14.912Z,77.79
2022-11-24T11:26:14.858Z,77.86
2022-11-24T11:27:14.841Z,78.20
2022-11-24T11:28:17.929Z,78.10
2022-11-24T11:31:19.073Z,77.58
2022-11-24T11:34:23.308Z,78.20
2022-11-24T11:35:15.792Z,78.00
2022-11-24T11:36:14.772Z,78.30
2022-11-24T11:37:14.737Z,78.51
2022-11-24T11:38:14.725Z,78.44
2022-11-24T11:39:14.721Z,78.03
2022-11-24T11:40:14.697Z,78.34
2022-11-24T11:41:14.702Z,78.61
2022-11-24T11:42:31.400Z,78.75
2022-11-24T11:43:15.673Z,78.82
2022-11-24T11:44:14.672Z,79.13
2022-11-24T11:45:14.681Z,78.82
2022-11-24T11:46:14.870Z,78.51
2022-11-24T11:47:14.705Z,78.82
2022-11-24T11:48:14.622Z,78.30
2022-11-24T11:49:14.611Z,78.51
2022-11-24T11:50:14.781Z,78.92
2022-11-24T11:51:23.485Z,78.72
2022-11-24T11:52:15.586Z,79.23
2022-11-24T11:53:14.572Z,79.33
2022-11-24T11:54:14.550Z,80.05
2022-11-24T11:55:14.542Z,80.05
2022-11-24T11:56:14.529Z,79.64
2022-11-24T11:57:14.540Z,79.44
2022-11-24T11:58:14.555Z,79.23
2022-11-24T11:59:14.508Z,79.03
2022-11-24T12:00:14.489Z,79.23
2022-11-24T12:01:14.493Z,79.03
2022-11-24T12:02:14.532Z,78.61
2022-11-24T12:03:14.604Z,78.92
2022-11-24T12:04:14.508Z,78.92
2022-11-24T12:05:14.436Z,79.13
2022-11-24T12:06:14.422Z,79.33
2022-11-24T12:07:14.551Z,79.23
2022-11-24T12:08:20.467Z,79.44
2022-11-24T12:09:22.688Z,79.13
2022-11-24T12:10:15.412Z,79.54
2022-11-24T12:11:14.376Z,79.44
2022-11-24T12:12:14.354Z,79.33
2022-11-24T12:13:14.361Z,79.37
2022-11-24T12:14:14.334Z,79.68
2022-11-24T12:15:14.328Z,80.33
2022-11-24T12:16:14.356Z,80.44
2022-11-24T12:17:14.301Z,81.37
2022-11-24T12:18:40.152Z,81.26
2022-11-24T12:19:15.285Z,80.68
2022-11-24T12:20:14.278Z,81.40
2022-11-24T12:21:14.273Z,81.20
2022-11-24T12:22:14.239Z,81.05
2022-11-24T12:23:14.265Z,81.67
2022-11-24T12:24:14.339Z,81.37
2022-11-24T12:25:14.218Z,81.16
2022-11-24T12:26:14.201Z,81.26
2022-11-24T12:27:17.996Z,81.57
2022-11-24T12:28:14.184Z,81.26
2022-11-24T12:29:14.189Z,81.37
2022-11-24T12:30:14.154Z,81.23
2022-11-24T12:31:14.274Z,80.81
2022-11-24T12:32:14.158Z,80.71
2022-11-24T12:33:14.127Z,81.23
2022-11-24T12:34:14.118Z,80.61
2022-11-24T12:35:14.098Z,80.40
2022-11-24T12:36:14.094Z,80.40
2022-11-24T12:37:14.084Z,80.51
2022-11-24T12:38:14.090Z,80.33
2022-11-24T12:39:14.076Z,80.95
2022-11-24T12:40:14.046Z,81.33
2022-11-24T12:42:15.030Z,81.02
2022-11-24T12:43:14.033Z,81.23
2022-11-24T12:44:14.031Z,81.12
2022-11-24T12:45:14.009Z,81.33
2022-11-24T12:46:17.200Z,80.81
2022-11-24T12:47:14.091Z,80.81
2022-11-24T12:48:13.967Z,80.91
2022-11-24T12:49:13.947Z,80.81
2022-11-24T12:50:13.984Z,81.43
2022-11-24T12:51:13.927Z,81.39
2022-11-24T12:52:13.918Z,80.88
2022-11-24T12:53:13.919Z,80.51
2022-11-24T12:54:13.895Z,80.81
2022-11-24T12:55:13.901Z,80.91
2022-11-24T12:56:13.890Z,80.61
2022-11-24T12:57:13.868Z,81.02